createdAt,value
2018-07-22T00:01:49.895Z,19.37
2018-07-22T00:04:17.094Z,19.38
2018-07-22T00:06:44.365Z,19.35
2018-07-22T00:09:12.368Z,19.32
2018-07-22T00:11:39.659Z,19.43
2018-07-22T00:14:07.205Z,19.35
2018-07-22T00:16:34.378Z,19.38
2018-07-22T00:19:01.742Z,19.35
2018-07-22T00:21:28.996Z,19.38
2018-07-22T00:23:56.327Z,19.32
2018-07-22T00:26:23.617Z,19.37
2018-07-22T00:28:50.806Z,19.40
2018-07-22T00:31:18.341Z,19.34
2018-07-22T00:33:45.587Z,19.37
2018-07-22T00:36:12.816Z,19.28
2018-07-22T00:38:40.016Z,19.40
2018-07-22T00:41:07.426Z,19.26
2018-07-22T00:43:34.727Z,19.26
2018-07-22T00:46:01.996Z,19.31
2018-07-22T00:48:29.278Z,19.36
2018-07-22T00:50:56.608Z,19.43
2018-07-22T00:53:23.798Z,19.42
2018-07-22T00:55:51.057Z,19.38
2018-07-22T00:58:18.279Z,19.44
2018-07-22T01:00:45.640Z,19.46
2018-07-22T01:03:12.899Z,19.46
2018-07-22T01:05:40.156Z,19.37
2018-07-22T01:08:07.367Z,19.25
2018-07-22T01:10:34.691Z,19.27
2018-07-22T01:13:01.877Z,19.30
2018-07-22T01:15:29.146Z,19.34
2018-07-22T01:17:56.434Z,19.36
2018-07-22T01:20:23.733Z,19.33
2018-07-22T01:22:51.023Z,19.37
2018-07-22T01:25:18.276Z,19.38
2018-07-22T01:27:45.555Z,19.22
2018-07-22T01:30:12.708Z,19.12
2018-07-22T01:33:56.679Z,18.89
2018-07-22T01:36:23.895Z,18.96
2018-07-22T01:38:51.155Z,19.00
2018-07-22T01:41:18.441Z,19.09
2018-07-22T01:43:45.762Z,19.16
2018-07-22T01:46:12.969Z,19.16
2018-07-22T01:48:40.245Z,19.21
2018-07-22T01:51:07.704Z,19.23
2018-07-22T01:53:35.069Z,19.27
2018-07-22T01:56:02.355Z,19.29
2018-07-22T01:58:29.680Z,19.36
2018-07-22T02:00:56.936Z,19.40
2018-07-22T02:03:24.145Z,19.43
2018-07-22T02:05:51.401Z,19.45
2018-07-22T02:08:18.677Z,19.37
2018-07-22T02:10:47.386Z,19.39
2018-07-22T02:13:14.629Z,19.31
2018-07-22T02:15:41.889Z,19.20
2018-07-22T02:18:09.127Z,19.18
2018-07-22T02:20:36.353Z,19.25
2018-07-22T02:23:03.576Z,19.24
2018-07-22T02:25:30.769Z,19.27
2018-07-22T02:27:58.051Z,19.20
2018-07-22T02:30:25.313Z,19.27
2018-07-22T02:32:52.616Z,19.33
2018-07-22T02:35:20.074Z,19.35
2018-07-22T02:37:47.322Z,19.31
2018-07-22T02:40:14.557Z,19.27
2018-07-22T02:42:41.754Z,19.22
2018-07-22T02:45:09.150Z,19.21
2018-07-22T02:47:36.437Z,19.11
2018-07-22T02:50:03.887Z,19.07
2018-07-22T02:52:31.136Z,19.14
2018-07-22T02:54:58.430Z,19.25
2018-07-22T02:57:25.670Z,19.18
2018-07-22T02:59:52.964Z,19.19
2018-07-22T03:02:20.157Z,19.25
2018-07-22T03:04:47.395Z,19.25
2018-07-22T03:07:14.689Z,19.24
2018-07-22T03:09:41.935Z,19.27
2018-07-22T03:12:09.212Z,19.26
2018-07-22T03:14:36.484Z,19.30
2018-07-22T03:17:03.687Z,19.34
2018-07-22T03:19:30.859Z,19.32
2018-07-22T03:21:58.128Z,19.33
2018-07-22T03:24:25.505Z,19.37
2018-07-22T03:26:52.762Z,19.37
2018-07-22T03:29:19.960Z,19.39
2018-07-22T03:31:47.187Z,19.35
2018-07-22T03:34:14.578Z,19.39
2018-07-22T03:36:41.785Z,19.36
2018-07-22T03:39:10.363Z,19.35
2018-07-22T03:41:37.702Z,19.32
2018-07-22T03:44:05.038Z,19.26
2018-07-22T03:46:32.242Z,19.21
2018-07-22T03:48:59.465Z,19.18
2018-07-22T03:51:26.745Z,19.16
2018-07-22T03:53:53.983Z,19.27
2018-07-22T03:56:21.216Z,19.26
2018-07-22T03:58:48.462Z,19.28
2018-07-22T04:01:15.730Z,19.28
2018-07-22T04:03:42.954Z,19.28
2018-07-22T04:06:10.175Z,19.20
2018-07-22T04:08:37.435Z,19.21
2018-07-22T04:11:04.674Z,19.22
2018-07-22T04:13:31.945Z,19.22
2018-07-22T04:15:59.212Z,19.25
2018-07-22T04:18:26.520Z,19.29
2018-07-22T04:20:53.715Z,19.29
2018-07-22T04:23:21.029Z,19.34
2018-07-22T04:25:48.257Z,19.31
2018-07-22T04:28:15.513Z,19.30
2018-07-22T04:30:42.770Z,19.22
2018-07-22T04:33:10.080Z,19.08
2018-07-22T04:35:37.286Z,18.83
2018-07-22T04:38:04.945Z,18.69
2018-07-22T04:40:32.187Z,18.85
2018-07-22T04:42:59.400Z,19.00
2018-07-22T04:45:26.592Z,19.13
2018-07-22T04:47:53.804Z,19.29
2018-07-22T04:50:21.053Z,19.39
2018-07-22T04:52:48.291Z,19.52
2018-07-22T04:55:15.617Z,19.63
2018-07-22T04:57:42.869Z,19.75
2018-07-22T05:00:10.238Z,19.75
2018-07-22T05:02:37.457Z,19.86
2018-07-22T05:05:04.718Z,19.78
2018-07-22T05:07:31.880Z,20.03
2018-07-22T05:09:59.120Z,20.21
2018-07-22T05:12:26.293Z,20.40
2018-07-22T05:14:54.858Z,20.34
2018-07-22T05:17:24.010Z,20.30
2018-07-22T05:19:51.292Z,20.25
2018-07-22T05:22:18.671Z,20.22
2018-07-22T05:24:45.842Z,20.20
2018-07-22T05:27:13.161Z,20.22
2018-07-22T05:29:40.427Z,20.24
2018-07-22T05:32:07.641Z,20.41
2018-07-22T05:34:34.832Z,20.47
2018-07-22T05:37:02.055Z,20.45
2018-07-22T05:39:29.304Z,20.34
2018-07-22T05:41:58.426Z,20.36
2018-07-22T05:44:25.719Z,20.49
2018-07-22T05:46:52.988Z,20.47
2018-07-22T05:49:20.194Z,20.49
2018-07-22T05:51:47.437Z,20.58
2018-07-22T05:54:14.701Z,20.65
2018-07-22T05:56:41.984Z,20.65
2018-07-22T05:59:09.181Z,20.68
2018-07-22T06:01:36.405Z,20.75
2018-07-22T06:04:03.762Z,20.75
2018-07-22T06:06:31.082Z,20.81
2018-07-22T06:08:58.322Z,20.92
2018-07-22T06:11:25.527Z,21.01
2018-07-22T06:13:53.567Z,20.93
2018-07-22T06:16:20.807Z,21.06
2018-07-22T06:18:48.023Z,21.08
2018-07-22T06:21:15.328Z,21.14
2018-07-22T06:23:42.622Z,21.56
2018-07-22T06:26:09.804Z,21.74
2018-07-22T06:28:37.054Z,21.66
2018-07-22T06:31:04.310Z,21.63
2018-07-22T06:33:31.529Z,21.66
2018-07-22T06:35:58.842Z,21.77
2018-07-22T06:38:26.128Z,21.69
2018-07-22T06:40:53.359Z,21.76
2018-07-22T06:43:20.492Z,21.66
2018-07-22T06:45:47.719Z,21.68
2018-07-22T06:48:14.925Z,21.76
2018-07-22T06:50:42.134Z,21.91
2018-07-22T06:53:09.375Z,22.07
2018-07-22T06:55:36.655Z,22.14
2018-07-22T06:58:03.919Z,22.38
2018-07-22T07:00:31.208Z,22.64
2018-07-22T07:02:58.465Z,22.93
2018-07-22T07:05:25.802Z,23.18
2018-07-22T07:07:53.576Z,23.30
2018-07-22T07:10:20.887Z,23.32
2018-07-22T07:12:48.107Z,23.53
2018-07-22T07:15:15.420Z,23.83
2018-07-22T07:17:42.721Z,23.95
2018-07-22T07:20:09.992Z,24.10
2018-07-22T07:22:38.314Z,24.25
2018-07-22T07:25:06.216Z,24.25
2018-07-22T07:27:33.437Z,24.23
2018-07-22T07:30:00.711Z,24.10
2018-07-22T07:32:28.010Z,24.01
2018-07-22T07:34:55.316Z,23.75
2018-07-22T07:37:23.363Z,23.86
2018-07-22T07:39:50.554Z,23.94
2018-07-22T07:42:17.892Z,24.17
2018-07-22T07:44:45.211Z,23.90
2018-07-22T07:47:12.503Z,23.74
2018-07-22T07:49:39.758Z,23.72
2018-07-22T07:52:07.096Z,23.77
2018-07-22T07:54:34.389Z,23.84
2018-07-22T07:57:01.639Z,23.80
2018-07-22T07:59:28.907Z,23.52
2018-07-22T08:01:56.190Z,23.58
2018-07-22T08:04:23.445Z,23.73
2018-07-22T08:06:50.724Z,23.93
2018-07-22T08:09:17.971Z,23.85
2018-07-22T08:11:45.179Z,23.91
2018-07-22T08:14:12.398Z,23.68
2018-07-22T08:16:39.675Z,23.67
2018-07-22T08:19:06.939Z,23.72
2018-07-22T08:21:34.285Z,23.77
2018-07-22T08:24:01.544Z,23.78
2018-07-22T08:26:28.715Z,23.91
2018-07-22T08:29:31.019Z,24.10
2018-07-22T08:32:00.743Z,24.21
2018-07-22T08:34:28.122Z,24.20
2018-07-22T08:36:55.552Z,24.17
2018-07-22T08:39:24.083Z,24.40
2018-07-22T08:41:52.010Z,24.38
2018-07-22T08:44:19.260Z,24.41
2018-07-22T08:46:46.474Z,24.40
2018-07-22T08:49:13.737Z,24.53
2018-07-22T08:51:41.038Z,24.57
2018-07-22T08:54:08.418Z,24.61
2018-07-22T08:56:35.713Z,24.69
2018-07-22T08:59:03.387Z,24.71
2018-07-22T09:01:30.900Z,24.79
2018-07-22T09:03:58.229Z,24.86
2018-07-22T09:06:26.098Z,25.36
2018-07-22T09:08:53.330Z,25.86
2018-07-22T09:11:20.635Z,26.09
2018-07-22T09:13:47.907Z,26.08
2018-07-22T09:16:15.675Z,25.90
2018-07-22T09:18:43.002Z,26.27
2018-07-22T09:21:10.255Z,26.55
2018-07-22T09:23:37.646Z,26.88
2018-07-22T09:26:05.049Z,27.04
2018-07-22T09:28:32.479Z,27.51
2018-07-22T09:30:59.689Z,27.88
2018-07-22T09:33:26.982Z,27.88
2018-07-22T09:35:54.350Z,27.78
2018-07-22T09:38:21.599Z,27.38
2018-07-22T09:40:48.828Z,27.25
2018-07-22T09:43:16.054Z,27.44
2018-07-22T09:45:43.310Z,27.72
2018-07-22T09:48:10.549Z,27.85
2018-07-22T09:50:37.872Z,27.88
2018-07-22T09:53:05.071Z,28.03
2018-07-22T09:55:32.517Z,28.09
2018-07-22T09:57:59.737Z,28.07
2018-07-22T10:00:32.668Z,28.00
2018-07-22T10:02:59.921Z,27.59
2018-07-22T10:05:27.109Z,27.26
2018-07-22T10:07:54.361Z,27.06
2018-07-22T10:10:21.607Z,27.28
2018-07-22T10:12:48.816Z,27.68
2018-07-22T10:15:16.124Z,27.80
2018-07-22T10:17:43.452Z,28.18
2018-07-22T10:20:10.817Z,28.20
2018-07-22T10:22:38.159Z,28.64
2018-07-22T10:25:05.468Z,28.57
2018-07-22T10:27:32.647Z,28.84
2018-07-22T10:29:59.961Z,28.85
2018-07-22T10:32:27.238Z,28.33
2018-07-22T10:34:54.481Z,27.95
2018-07-22T10:37:21.714Z,27.89
2018-07-22T10:39:49.016Z,27.78
2018-07-22T10:42:16.208Z,27.97
2018-07-22T10:44:43.582Z,28.27
2018-07-22T10:47:10.860Z,27.93
2018-07-22T10:49:38.098Z,27.82
2018-07-22T10:52:05.442Z,27.55
2018-07-22T10:54:32.706Z,27.59
2018-07-22T10:56:59.959Z,27.96
2018-07-22T10:59:27.269Z,28.16
2018-07-22T11:01:54.604Z,27.82
2018-07-22T11:04:21.847Z,27.98
2018-07-22T11:06:49.026Z,28.39
2018-07-22T11:09:16.284Z,28.37
2018-07-22T11:11:43.573Z,28.61
2018-07-22T11:14:10.879Z,29.01
2018-07-22T11:16:38.016Z,29.41
2018-07-22T11:19:05.299Z,29.23
2018-07-22T11:21:32.552Z,28.63
2018-07-22T11:23:59.778Z,28.04
2018-07-22T11:26:27.034Z,28.25
2018-07-22T11:28:54.374Z,28.68
2018-07-22T11:31:21.579Z,29.04
2018-07-22T11:33:48.818Z,29.04
2018-07-22T11:36:16.148Z,28.19
2018-07-22T11:38:43.367Z,28.20
2018-07-22T11:41:10.624Z,28.52
2018-07-22T11:43:37.919Z,28.34
2018-07-22T11:46:05.137Z,28.54
2018-07-22T11:48:32.348Z,28.67
2018-07-22T11:50:59.646Z,28.87
2018-07-22T11:53:26.896Z,29.25
2018-07-22T11:55:54.340Z,29.14
2018-07-22T11:58:21.595Z,29.19
2018-07-22T12:00:49.460Z,29.00
2018-07-22T12:03:18.496Z,28.64
2018-07-22T12:05:45.786Z,28.47
2018-07-22T12:08:13.045Z,28.87
2018-07-22T12:10:40.274Z,29.42
2018-07-22T12:13:07.554Z,29.42
2018-07-22T12:15:34.750Z,29.14
2018-07-22T12:18:01.993Z,29.22
2018-07-22T12:20:29.377Z,29.34
2018-07-22T12:22:56.911Z,28.85
2018-07-22T12:25:24.144Z,28.86
2018-07-22T12:27:51.591Z,28.95
2018-07-22T12:30:18.822Z,28.98
2018-07-22T12:32:46.040Z,28.94
2018-07-22T12:35:13.289Z,29.22
2018-07-22T12:37:40.557Z,29.91
2018-07-22T12:40:07.845Z,30.09
2018-07-22T12:42:35.182Z,29.66
2018-07-22T12:45:02.438Z,29.11
2018-07-22T12:47:29.686Z,29.33
2018-07-22T12:49:57.043Z,29.77
2018-07-22T12:52:24.327Z,29.87
2018-07-22T12:54:51.588Z,29.61
2018-07-22T12:57:18.901Z,29.68
2018-07-22T12:59:46.272Z,29.72
2018-07-22T13:02:15.852Z,29.69
2018-07-22T13:04:43.115Z,29.41
2018-07-22T13:07:10.329Z,29.06
2018-07-22T13:09:37.655Z,28.82
2018-07-22T13:12:05.057Z,28.39
2018-07-22T13:14:32.315Z,28.43
2018-07-22T13:16:59.564Z,28.65
2018-07-22T13:19:26.876Z,29.05
2018-07-22T13:21:54.114Z,29.63
2018-07-22T13:24:21.424Z,30.02
2018-07-22T13:26:48.757Z,30.19
2018-07-22T13:30:12.123Z,29.91
2018-07-22T13:32:39.381Z,29.98
2018-07-22T13:35:06.679Z,30.28
2018-07-22T13:37:34.002Z,30.80
2018-07-22T13:40:01.225Z,30.27
2018-07-22T13:42:30.399Z,30.15
2018-07-22T13:44:57.704Z,30.31
2018-07-22T13:47:24.955Z,30.54
2018-07-22T13:49:52.269Z,30.89
2018-07-22T13:52:19.580Z,30.74
2018-07-22T13:54:46.866Z,30.35
2018-07-22T13:57:14.134Z,29.58
2018-07-22T13:59:41.364Z,28.80
2018-07-22T14:02:09.681Z,28.39
2018-07-22T14:04:36.981Z,28.40
2018-07-22T14:07:04.178Z,28.16
2018-07-22T14:09:31.400Z,28.02
2018-07-22T14:11:58.678Z,27.72
2018-07-22T14:14:27.925Z,27.72
2018-07-22T14:16:55.194Z,27.38
2018-07-22T14:19:22.411Z,26.95
2018-07-22T14:21:49.742Z,27.05
2018-07-22T14:24:17.150Z,27.15
2018-07-22T14:26:44.436Z,27.11
2018-07-22T14:29:11.715Z,27.21
2018-07-22T14:31:39.033Z,27.03
2018-07-22T14:34:06.367Z,27.07
2018-07-22T14:36:33.670Z,26.82
2018-07-22T14:39:01.135Z,26.34
2018-07-22T14:41:28.416Z,25.92
2018-07-22T14:43:55.725Z,25.47
2018-07-22T14:46:22.948Z,25.29
2018-07-22T14:48:50.224Z,24.80
2018-07-22T14:51:17.534Z,24.57
2018-07-22T14:53:44.873Z,23.84
2018-07-22T14:56:12.162Z,23.49
2018-07-22T14:58:39.648Z,23.18
2018-07-22T15:01:10.876Z,22.92
2018-07-22T15:03:38.127Z,22.98
2018-07-22T15:06:05.355Z,23.03
2018-07-22T15:08:32.734Z,23.07
2018-07-22T15:10:59.903Z,22.96
2018-07-22T15:13:29.789Z,22.90
2018-07-22T15:15:59.006Z,22.78
2018-07-22T15:18:26.258Z,22.33
2018-07-22T15:20:53.457Z,22.23
2018-07-22T15:23:20.730Z,22.45
2018-07-22T15:25:49.568Z,22.58
2018-07-22T15:28:17.005Z,22.46
2018-07-22T15:30:44.355Z,22.21
2018-07-22T15:33:11.530Z,22.20
2018-07-22T15:35:38.786Z,22.08
2018-07-22T15:38:06.211Z,22.09
2018-07-22T15:40:33.432Z,22.07
2018-07-22T15:43:00.679Z,21.97
2018-07-22T15:45:29.008Z,22.15
2018-07-22T15:47:56.305Z,21.89
2018-07-22T15:50:23.579Z,22.02
2018-07-22T15:52:50.785Z,21.82
2018-07-22T15:55:20.955Z,21.75
2018-07-22T15:57:48.071Z,21.16
2018-07-22T16:00:15.333Z,21.00
2018-07-22T16:02:42.531Z,21.14
2018-07-22T16:05:09.744Z,21.11
2018-07-22T16:07:37.106Z,20.90
2018-07-22T16:10:04.568Z,20.64
2018-07-22T16:12:31.831Z,20.64
2018-07-22T16:14:59.033Z,20.58
2018-07-22T16:17:26.346Z,20.46
2018-07-22T16:19:53.631Z,20.10
2018-07-22T16:22:20.882Z,19.96
2018-07-22T16:36:12.806Z,19.69
2018-07-22T16:38:41.118Z,19.76
2018-07-22T16:41:09.319Z,19.82
2018-07-22T16:43:39.553Z,19.89
2018-07-22T16:46:06.878Z,19.91
2018-07-22T16:48:34.210Z,19.87
2018-07-22T16:51:01.774Z,19.52
2018-07-22T16:53:29.036Z,19.89
2018-07-22T16:55:56.323Z,19.90
2018-07-22T16:58:23.623Z,19.90
2018-07-22T17:00:50.882Z,19.71
2018-07-22T17:03:18.056Z,19.62
2018-07-22T17:05:45.382Z,19.55
2018-07-22T17:08:12.625Z,19.61
2018-07-22T17:10:39.834Z,19.66
2018-07-22T17:13:07.170Z,19.66
2018-07-22T17:15:34.425Z,19.59
2018-07-22T17:18:01.613Z,19.52
2018-07-22T17:21:46.253Z,19.19
2018-07-22T17:24:13.513Z,19.13
2018-07-22T17:26:40.776Z,19.21
2018-07-22T17:29:08.055Z,19.31
2018-07-22T17:31:35.452Z,19.30
2018-07-22T17:34:02.875Z,19.37
2018-07-22T17:36:30.080Z,19.42
2018-07-22T17:38:57.340Z,19.53
2018-07-22T17:41:24.554Z,19.49
2018-07-22T17:43:51.817Z,19.55
2018-07-22T17:46:19.059Z,19.62
2018-07-22T17:48:46.291Z,19.60
2018-07-22T17:51:40.662Z,19.68
2018-07-22T17:54:07.994Z,19.46
2018-07-22T17:56:35.154Z,19.31
2018-07-22T17:59:02.424Z,19.20
2018-07-22T18:01:29.825Z,19.19
2018-07-22T18:03:59.307Z,19.14
2018-07-22T18:06:26.506Z,19.24
2018-07-22T18:08:54.740Z,19.27
2018-07-22T18:11:22.014Z,19.25
2018-07-22T18:13:49.301Z,19.30
2018-07-22T18:16:16.539Z,19.23
2018-07-22T18:18:47.986Z,19.25
2018-07-22T18:21:15.308Z,19.26
2018-07-22T18:23:42.469Z,19.27
2018-07-22T18:26:09.729Z,19.29
2018-07-22T18:28:37.038Z,19.38
2018-07-22T18:31:04.296Z,19.41
2018-07-22T18:33:31.551Z,19.54
2018-07-22T18:35:58.832Z,19.54
2018-07-22T18:38:26.085Z,19.56
2018-07-22T18:40:53.260Z,19.56
2018-07-22T18:43:20.640Z,19.58
2018-07-22T18:45:47.888Z,19.63
2018-07-22T18:48:15.228Z,19.76
2018-07-22T18:50:42.449Z,19.70
2018-07-22T18:53:09.743Z,19.78
2018-07-22T18:55:37.014Z,19.79
2018-07-22T18:58:04.369Z,19.90
2018-07-22T19:00:31.568Z,19.86
2018-07-22T19:02:58.789Z,19.80
2018-07-22T19:05:26.166Z,19.73
2018-07-22T19:07:53.402Z,19.83
2018-07-22T19:10:20.689Z,19.75
2018-07-22T19:12:47.971Z,19.80
2018-07-22T19:15:15.137Z,19.87
2018-07-22T19:17:42.398Z,19.83
2018-07-22T19:20:10.931Z,19.94
2018-07-22T19:22:38.216Z,19.96
2018-07-22T19:25:05.542Z,19.95
2018-07-22T19:27:32.779Z,19.89
2018-07-22T19:30:00.152Z,19.87
2018-07-22T19:32:27.401Z,19.92
2018-07-22T19:34:56.388Z,19.92
2018-07-22T19:37:23.644Z,19.94
2018-07-22T19:39:50.899Z,19.89
2018-07-22T19:42:18.082Z,19.84
2018-07-22T19:44:45.378Z,19.69
2018-07-22T19:47:12.674Z,19.67
2018-07-22T19:49:41.394Z,19.70
2018-07-22T19:52:08.888Z,19.76
2018-07-22T19:54:36.139Z,19.78
2018-07-22T19:57:03.431Z,19.83
2018-07-22T19:59:30.770Z,19.80
2018-07-22T20:01:58.090Z,19.44
2018-07-22T20:04:25.637Z,19.63
2018-07-22T20:06:53.002Z,19.56
2018-07-22T20:09:20.281Z,19.58
2018-07-22T20:11:47.524Z,19.68
2018-07-22T20:14:14.872Z,19.61
2018-07-22T20:16:42.105Z,19.54
2018-07-22T20:19:09.316Z,19.49
2018-07-22T20:21:36.676Z,19.37
2018-07-22T20:24:04.100Z,19.32
2018-07-22T20:26:31.185Z,19.33
2018-07-22T20:28:58.471Z,19.28
2018-07-22T20:31:25.720Z,19.39
2018-07-22T20:33:53.040Z,19.38
2018-07-22T20:36:20.328Z,19.45
2018-07-22T20:38:47.653Z,19.47
2018-07-22T20:41:15.005Z,19.31
2018-07-22T20:43:42.244Z,19.35
2018-07-22T20:46:09.486Z,19.39
2018-07-22T20:48:36.846Z,19.49
2018-07-22T20:51:04.085Z,19.49
2018-07-22T20:53:31.364Z,19.47
2018-07-22T20:55:59.090Z,19.45
2018-07-22T20:58:26.643Z,19.47
2018-07-22T21:00:54.028Z,19.47
2018-07-22T21:03:21.296Z,19.54
2018-07-22T21:05:48.747Z,19.61
2018-07-22T21:08:16.081Z,19.53
2018-07-22T21:10:43.411Z,19.61
2018-07-22T21:13:19.949Z,19.54
2018-07-22T21:15:47.408Z,19.43
2018-07-22T21:18:14.966Z,19.25
2018-07-22T21:20:42.454Z,19.12
2018-07-22T21:23:09.862Z,19.18
2018-07-22T21:25:37.324Z,19.12
2018-07-22T21:28:04.635Z,19.09
2018-07-22T21:30:31.865Z,19.06
2018-07-22T21:32:59.167Z,19.15
2018-07-22T21:35:26.412Z,19.27
2018-07-22T21:37:53.693Z,19.19
2018-07-22T21:40:20.951Z,19.33
2018-07-22T21:42:48.222Z,19.47
2018-07-22T21:45:15.545Z,19.55
2018-07-22T21:47:42.880Z,19.59
2018-07-22T21:50:10.180Z,19.57
2018-07-22T21:52:37.513Z,19.58
2018-07-22T21:55:05.254Z,19.65
2018-07-22T21:57:32.470Z,19.67
2018-07-22T21:59:59.751Z,19.68
2018-07-22T22:02:29.956Z,19.49
2018-07-22T22:04:57.292Z,19.51
2018-07-22T22:07:25.641Z,19.51
2018-07-22T22:09:53.169Z,19.39
2018-07-22T22:12:20.479Z,19.51
2018-07-22T22:14:48.580Z,19.51
2018-07-22T22:17:15.810Z,19.57
2018-07-22T22:19:43.112Z,19.61
2018-07-22T22:22:10.475Z,19.61
2018-07-22T22:24:37.772Z,19.56
2018-07-22T22:27:05.056Z,19.62
2018-07-22T22:29:32.293Z,19.67
2018-07-22T22:31:59.504Z,19.69
2018-07-22T22:34:26.714Z,19.74
2018-07-22T22:36:53.956Z,19.73
2018-07-22T22:39:21.235Z,19.69
2018-07-22T22:41:48.523Z,19.68
2018-07-22T22:44:15.800Z,19.59
2018-07-22T22:46:43.101Z,19.64
2018-07-22T22:49:10.375Z,19.57
2018-07-22T22:51:37.667Z,19.63
2018-07-22T22:54:04.957Z,19.62
2018-07-22T22:56:32.212Z,19.60
2018-07-22T22:59:11.103Z,19.59
2018-07-22T23:01:38.418Z,19.63
2018-07-22T23:04:06.476Z,19.53
2018-07-22T23:06:33.830Z,19.53
2018-07-22T23:09:01.129Z,19.61
2018-07-22T23:11:28.456Z,19.63
2018-07-22T23:13:55.689Z,19.68
2018-07-22T23:16:22.944Z,19.72
2018-07-22T23:18:50.206Z,19.68
2018-07-22T23:21:17.469Z,19.69
2018-07-22T23:23:44.797Z,19.56
2018-07-22T23:26:11.992Z,19.50
2018-07-22T23:28:39.286Z,19.46
2018-07-22T23:31:06.574Z,19.50
2018-07-22T23:33:33.834Z,19.45
2018-07-22T23:36:01.064Z,19.52
2018-07-22T23:38:28.312Z,19.51
2018-07-22T23:40:55.559Z,19.56
2018-07-22T23:43:22.852Z,19.53
2018-07-22T23:45:50.148Z,19.55
2018-07-22T23:48:17.399Z,19.50
2018-07-22T23:50:44.694Z,19.49
2018-07-22T23:53:11.995Z,19.41
2018-07-22T23:55:39.226Z,19.45
2018-07-22T23:58:06.708Z,19.46
